Time;durP1;ratioP1;P1;durP2;ratioP2;P2;SDS_P1;SDS_P2;PMS_P1;PMS_P2;Temp;Humidity;BMP_temperature;BMP_pressure;BME280_temperature;BME280_humidity;BME280_pressure;Samples;Min_cycle;Max_cycle;Signal;HPM_P1;HPM_P2
2023/07/21 00:01:06;;;;;;;4.05;2.95;;;;;;;16.67;84.96;100952.19;5024369;28;20060;-69
2023/07/21 00:03:32;;;;;;;4.68;2.63;;;;;;;16.61;85.12;100947.69;5024575;28;20060;-70
2023/07/21 00:05:59;;;;;;;3.17;2.53;;;;;;;16.53;85.54;100950.47;5024663;28;20144;-70
2023/07/21 00:08:28;;;;;;;3.88;2.75;;;;;;;16.40;86.13;100951.19;5024042;28;20041;-69
2023/07/21 00:10:53;;;;;;;3.28;2.65;;;;;;;16.28;86.46;100950.13;5022927;28;20120;-70
2023/07/21 00:13:19;;;;;;;3.17;2.63;;;;;;;16.27;86.44;100944.03;5020638;28;20052;-69
2023/07/21 00:15:46;;;;;;;3.35;2.47;;;;;;;16.26;86.52;100945.06;5023683;28;20048;-70
2023/07/21 00:18:12;;;;;;;3.53;2.60;;;;;;;16.27;86.75;100946.66;5023553;28;20044;-70
2023/07/21 00:20:38;;;;;;;3.38;2.78;;;;;;;16.27;86.85;100945.88;5023874;28;20041;-70
2023/07/21 00:23:03;;;;;;;8.80;2.58;;;;;;;16.27;86.95;100949.28;5017990;28;20018;-69
2023/07/21 00:25:29;;;;;;;3.53;2.67;;;;;;;16.27;87.39;100951.09;5022017;28;20041;-69
2023/07/21 00:27:55;;;;;;;5.25;3.00;;;;;;;16.20;87.78;100943.22;5025410;28;20037;-69
2023/07/21 00:30:22;;;;;;;4.95;2.88;;;;;;;16.12;88.27;100936.31;5018673;28;20037;-69
2023/07/21 00:32:47;;;;;;;4.38;3.08;;;;;;;16.13;88.39;100937.13;5022815;28;20041;-70
2023/07/21 00:35:13;;;;;;;4.70;3.00;;;;;;;16.14;88.39;100936.94;5025158;28;20104;-70
2023/07/21 00:37:39;;;;;;;8.52;2.83;;;;;;;16.12;88.68;100932.88;5011935;28;20041;-70
2023/07/21 00:40:18;;;;;;;3.47;2.92;;;;;;;16.09;88.70;100936.69;5015594;28;20403;-69
2023/07/21 00:42:44;;;;;;;4.25;2.90;;;;;;;16.04;89.09;100933.81;5019986;28;20045;-67
2023/07/21 00:45:13;;;;;;;5.57;3.22;;;;;;;15.98;89.63;100931.16;5023371;28;20041;-67
2023/07/21 00:47:40;;;;;;;5.03;3.05;;;;;;;15.96;90.08;100933.97;5001427;28;20104;-67
2023/07/21 00:50:07;;;;;;;2.95;2.58;;;;;;;15.89;90.65;100933.88;5025344;28;20037;-67
2023/07/21 00:52:35;;;;;;;4.30;3.10;;;;;;;15.81;91.26;100930.59;5023196;28;20033;-70
2023/07/21 00:55:01;;;;;;;4.07;3.17;;;;;;;15.79;91.57;100928.16;5024240;28;20702;-70
2023/07/21 00:57:27;;;;;;;3.45;2.80;;;;;;;15.83;91.61;100933.84;5006564;28;20049;-70
2023/07/21 00:59:53;;;;;;;5.30;3.03;;;;;;;15.84;91.30;100924.97;5023704;28;20029;-69
2023/07/21 01:02:18;;;;;;;4.10;2.95;;;;;;;15.82;91.34;100929.59;5023209;28;20052;-70
2023/07/21 01:04:45;;;;;;;3.38;2.42;;;;;;;15.79;91.30;100924.75;5026973;28;20056;-69
2023/07/21 01:07:11;;;;;;;2.97;2.60;;;;;;;15.80;91.18;100924.53;5021210;28;20081;-69
2023/07/21 01:09:38;;;;;;;4.47;3.17;;;;;;;15.79;91.31;100914.31;5039802;28;20105;-70
2023/07/21 01:12:07;;;;;;;4.22;3.13;;;;;;;15.76;91.35;100907.63;5006979;28;20065;-70
2023/07/21 01:14:35;;;;;;;4.63;3.03;;;;;;;15.75;91.18;100911.25;5023675;28;20117;-70
2023/07/21 01:17:01;;;;;;;2.88;2.60;;;;;;;15.65;91.65;100910.69;5025929;28;20036;-69
2023/07/21 01:19:29;;;;;;;4.03;2.60;;;;;;;15.61;91.74;100904.25;5025414;28;20045;-70
2023/07/21 01:22:10;;;;;;;4.22;3.15;;;;;;;15.61;91.42;100906.84;5026887;28;20518;-69
2023/07/21 01:24:42;;;;;;;4.40;2.80;;;;;;;15.62;91.57;100901.44;5018294;28;20041;-70
2023/07/21 01:27:11;;;;;;;4.30;2.97;;;;;;;15.61;91.72;100905.03;5024371;28;20037;-70
2023/07/21 01:29:41;;;;;;;5.03;3.60;;;;;;;15.60;92.08;100900.81;5009159;28;20495;-70
2023/07/21 01:32:09;;;;;;;4.95;3.15;;;;;;;15.63;92.20;100897.00;5020608;28;20038;-70
2023/07/21 01:34:36;;;;;;;3.22;2.55;;;;;;;15.60;92.23;100892.19;5010662;28;20033;-69
2023/07/21 01:37:02;;;;;;;4.43;2.95;;;;;;;15.56;92.34;100891.75;5022751;28;20065;-69
2023/07/21 01:39:30;;;;;;;4.72;3.28;;;;;;;15.47;92.64;100896.28;5020679;28;20040;-69
2023/07/21 01:41:57;;;;;;;4.72;2.75;;;;;;;15.44;93.02;100891.41;5009468;28;20056;-69
2023/07/21 01:44:23;;;;;;;3.40;2.90;;;;;;;15.37;93.48;100893.97;5021260;28;20555;-69
2023/07/21 01:46:49;;;;;;;7.45;3.60;;;;;;;15.41;93.74;100890.97;5023355;28;20041;-69
2023/07/21 01:49:15;;;;;;;3.95;2.85;;;;;;;15.44;93.44;100888.78;5023020;28;20117;-70
2023/07/21 01:51:43;;;;;;;4.70;3.00;;;;;;;15.44;93.47;100888.78;5018010;28;20399;-70
2023/07/21 01:54:36;;;;;;;4.22;3.60;;;;;;;15.45;93.53;100887.00;5023366;28;20044;-70
2023/07/21 01:57:04;;;;;;;4.40;3.65;;;;;;;15.41;93.93;100880.50;5023245;28;20033;-70
2023/07/21 01:59:29;;;;;;;6.88;3.25;;;;;;;15.34;93.98;100880.47;5024388;28;20041;-70
2023/07/21 02:01:56;;;;;;;4.28;3.45;;;;;;;15.29;94.02;100881.00;5022075;28;20088;-69
2023/07/21 02:04:22;;;;;;;4.55;3.63;;;;;;;15.29;94.09;100883.59;5023110;28;20521;-69
2023/07/21 02:06:48;;;;;;;4.43;3.17;;;;;;;15.22;94.47;100874.09;5019508;28;20108;-70
2023/07/21 02:09:14;;;;;;;5.07;3.55;;;;;;;15.15;94.86;100869.59;5023797;28;20468;-69
2023/07/21 02:11:42;;;;;;;5.80;3.42;;;;;;;15.10;95.41;100876.38;5007823;28;20030;-70
2023/07/21 02:14:46;;;;;;;4.20;3.03;;;;;;;15.11;95.29;100881.41;5018579;28;20065;-70
2023/07/21 02:17:13;;;;;;;4.20;3.60;;;;;;;15.11;95.35;100872.78;5018580;28;20432;-69
2023/07/21 02:19:38;;;;;;;4.38;3.60;;;;;;;15.09;94.96;100874.78;5023870;28;20040;-69
2023/07/21 02:22:06;;;;;;;4.82;2.65;;;;;;;15.08;95.44;100873.94;5038813;28;20033;-70
2023/07/21 02:24:31;;;;;;;5.45;3.08;;;;;;;15.12;95.29;100866.56;5024117;28;20071;-69
2023/07/21 02:26:59;;;;;;;4.00;3.38;;;;;;;15.16;95.27;100871.25;5026538;28;20033;-69
2023/07/21 02:29:27;;;;;;;5.55;3.78;;;;;;;15.12;95.36;100869.97;5021283;28;20041;-70
2023/07/21 02:31:55;;;;;;;3.50;3.15;;;;;;;15.06;95.66;100859.47;5022901;28;20463;-70
2023/07/21 02:34:20;;;;;;;3.60;3.00;;;;;;;14.97;95.91;100859.59;5027129;28;20045;-70
2023/07/21 02:36:47;;;;;;;6.05;3.33;;;;;;;14.94;96.32;100861.75;5026413;28;20534;-69
2023/07/21 02:39:12;;;;;;;7.22;4.40;;;;;;;14.89;96.93;100853.66;5011766;28;20030;-69
2023/07/21 02:41:38;;;;;;;4.43;3.33;;;;;;;14.90;97.05;100856.06;5041112;28;20037;-70
2023/07/21 02:44:04;;;;;;;6.35;3.38;;;;;;;14.95;96.63;100858.94;5027460;28;20034;-70
2023/07/21 02:46:30;;;;;;;4.32;3.70;;;;;;;14.97;96.33;100856.97;5025114;28;20057;-69
2023/07/21 02:48:55;;;;;;;4.05;3.42;;;;;;;14.98;96.27;100853.34;5024263;28;20029;-69
2023/07/21 02:51:21;;;;;;;5.18;3.40;;;;;;;15.01;96.19;100856.59;5020666;28;20813;-69
2023/07/21 02:53:47;;;;;;;5.70;3.90;;;;;;;15.03;96.12;100855.44;5025062;28;20025;-70
2023/07/21 02:56:14;;;;;;;6.18;3.65;;;;;;;15.04;95.97;100846.59;5023961;28;20501;-70
2023/07/21 02:59:00;;;;;;;4.85;3.58;;;;;;;15.04;95.75;100854.41;5011076;28;20040;-70
2023/07/21 03:01:26;;;;;;;6.15;3.45;;;;;;;15.06;95.62;100859.47;5039515;28;20400;-69
2023/07/21 03:03:55;;;;;;;5.60;3.70;;;;;;;15.03;95.98;100859.81;5024737;28;20029;-70
2023/07/21 03:06:21;;;;;;;5.32;3.45;;;;;;;15.02;96.07;100859.03;5007415;28;20057;-70
2023/07/21 03:08:47;;;;;;;5.70;4.07;;;;;;;14.95;96.73;100852.91;5020797;28;20036;-69
2023/07/21 03:11:17;;;;;;;7.70;4.10;;;;;;;14.91;97.34;100857.69;5022438;28;20067;-70
2023/07/21 03:13:56;;;;;;;7.27;4.80;;;;;;;14.94;97.52;100856.53;5023719;28;20435;-70
2023/07/21 03:16:22;;;;;;;5.32;4.40;;;;;;;14.97;97.18;100858.75;5023120;28;20045;-70
2023/07/21 03:18:53;;;;;;;7.05;4.90;;;;;;;14.98;96.99;100858.56;5021499;28;20209;-70
2023/07/21 03:21:19;;;;;;;7.45;4.68;;;;;;;14.98;96.72;100858.56;5023908;28;20171;-70
2023/07/21 03:23:47;;;;;;;5.78;4.25;;;;;;;14.99;96.53;100852.38;5023892;28;20134;-70
2023/07/21 03:26:18;;;;;;;5.78;4.65;;;;;;;15.01;96.35;100852.16;5023605;28;20045;-70
2023/07/21 03:28:43;;;;;;;5.45;3.97;;;;;;;15.02;95.77;100856.41;5026019;28;20091;-70
2023/07/21 03:31:09;;;;;;;6.88;4.82;;;;;;;15.02;95.33;100861.63;5021827;28;20041;-70
2023/07/21 03:33:54;;;;;;;6.32;5.15;;;;;;;14.98;95.19;100863.00;5021854;28;20041;-70
2023/07/21 03:36:22;;;;;;;5.65;4.55;;;;;;;14.97;95.30;100861.38;5023962;28;20042;-70
2023/07/21 03:38:47;;;;;;;7.43;5.53;;;;;;;14.97;95.39;100861.38;5025427;28;20036;-69
2023/07/21 03:41:13;;;;;;;6.95;5.47;;;;;;;14.95;95.00;100858.94;5040595;28;20059;-70
2023/07/21 03:43:40;;;;;;;6.03;5.18;;;;;;;14.96;95.13;100864.97;5023641;28;20029;-70
2023/07/21 03:46:07;;;;;;;8.93;5.63;;;;;;;14.95;94.93;100864.16;5012820;28;20060;-71
2023/07/21 03:48:55;;;;;;;6.03;4.97;;;;;;;14.92;94.85;100859.31;5026048;28;20573;-70
2023/07/21 03:51:20;;;;;;;5.72;4.60;;;;;;;14.88;95.16;100855.47;5009646;28;20041;-70
2023/07/21 03:53:46;;;;;;;6.43;4.85;;;;;;;14.84;95.35;100858.59;5024588;28;20040;-70
2023/07/21 03:56:12;;;;;;;5.20;4.22;;;;;;;14.82;95.45;100850.94;5007894;28;20045;-70
2023/07/21 03:58:37;;;;;;;7.03;4.85;;;;;;;14.81;95.40;100846.72;5025521;28;20034;-70
2023/07/21 04:01:04;;;;;;;9.57;6.03;;;;;;;14.77;95.23;100856.72;5022090;28;20037;-70
2023/07/21 04:03:30;;;;;;;12.90;5.45;;;;;;;14.70;95.37;100852.41;5026755;28;20052;-70
2023/07/21 04:05:57;;;;;;;9.10;5.72;;;;;;;14.58;95.59;100847.66;5021515;28;20033;-70
2023/07/21 04:08:22;;;;;;;6.90;5.35;;;;;;;14.53;95.76;100852.56;5027580;28;20059;-70
2023/07/21 04:10:48;;;;;;;8.13;5.90;;;;;;;14.45;95.52;100844.00;5026719;28;20049;-71
2023/07/21 04:13:13;;;;;;;6.07;5.15;;;;;;;14.39;96.34;100848.16;5022243;28;20028;-70
2023/07/21 04:15:39;;;;;;;7.13;4.68;;;;;;;14.35;96.97;100847.72;5004218;28;20431;-71
2023/07/21 04:18:04;;;;;;;6.65;5.70;;;;;;;14.32;97.25;100842.84;5022066;28;20033;-70
2023/07/21 04:20:30;;;;;;;8.77;5.95;;;;;;;14.32;97.55;100842.06;5027257;28;20087;-70
2023/07/21 04:22:55;;;;;;;8.07;6.57;;;;;;;14.33;97.85;100841.03;5023605;28;20099;-70
2023/07/21 04:25:21;;;;;;;9.32;5.85;;;;;;;14.35;97.88;100837.28;5025979;28;20464;-70
2023/07/21 04:27:50;;;;;;;7.63;6.20;;;;;;;14.33;98.08;100839.25;5040849;28;20053;-70
2023/07/21 04:30:17;;;;;;;10.82;6.50;;;;;;;14.36;98.35;100833.69;5026794;28;20555;-70
2023/07/21 04:32:43;;;;;;;8.90;6.80;;;;;;;14.38;98.79;100841.31;5027194;28;20041;-71
2023/07/21 04:35:09;;;;;;;8.70;6.20;;;;;;;14.40;99.04;100845.38;5025732;28;20029;-70
2023/07/21 04:37:37;;;;;;;9.48;6.55;;;;;;;14.46;99.17;100845.66;5022470;28;20065;-70
2023/07/21 04:40:07;;;;;;;6.65;5.32;;;;;;;14.52;98.92;100845.75;5008853;28;20491;-70
2023/07/21 04:42:35;;;;;;;7.38;6.20;;;;;;;14.58;98.73;100842.44;5024828;28;20514;-70
2023/07/21 04:45:01;;;;;;;8.73;6.53;;;;;;;14.65;98.15;100834.66;5022561;28;20498;-69
2023/07/21 04:47:27;;;;;;;10.45;6.63;;;;;;;14.74;97.67;100838.00;5025018;28;20677;-70
2023/07/21 04:49:59;;;;;;;10.38;6.75;;;;;;;14.81;97.33;100836.28;5021684;28;20549;-70
2023/07/21 04:52:25;;;;;;;12.13;7.05;;;;;;;14.87;96.99;100834.75;5018368;28;20048;-71
2023/07/21 04:54:51;;;;;;;9.25;7.35;;;;;;;14.91;97.40;100834.19;5024939;28;20041;-70
2023/07/21 04:57:17;;;;;;;11.45;9.15;;;;;;;14.95;97.76;100842.47;5022230;28;20041;-70
2023/07/21 04:59:43;;;;;;;13.05;9.70;;;;;;;14.98;98.26;100842.91;5023945;28;20069;-70
2023/07/21 05:02:09;;;;;;;11.13;8.77;;;;;;;14.99;98.72;100833.25;5021782;28;20025;-70
2023/07/21 05:04:34;;;;;;;14.88;10.57;;;;;;;14.99;99.28;100828.88;5021813;28;20070;-71
2023/07/21 05:07:01;;;;;;;11.90;8.93;;;;;;;15.05;99.37;100834.34;5027408;28;20038;-70
2023/07/21 05:09:27;;;;;;;14.65;12.00;;;;;;;15.09;99.12;100833.00;5021025;28;20029;-71
2023/07/21 05:11:55;;;;;;;18.88;12.65;;;;;;;15.15;98.83;100840.88;5024674;28;20033;-70
2023/07/21 05:14:41;;;;;;;13.73;10.40;;;;;;;15.21;98.75;100835.91;5015923;28;20091;-71
2023/07/21 05:17:11;;;;;;;17.55;11.95;;;;;;;15.24;98.45;100836.34;5022687;28;20128;-70
2023/07/21 05:20:00;;;;;;;14.93;10.20;;;;;;;15.31;98.31;100839.03;5021876;28;20467;-70
2023/07/21 05:22:42;;;;;;;18.57;12.93;;;;;;;15.37;98.22;100840.91;5024449;28;20536;-70
2023/07/21 05:25:17;;;;;;;18.30;13.73;;;;;;;15.40;98.34;100842.34;5023439;28;20435;-70
2023/07/21 05:27:47;;;;;;;20.13;14.75;;;;;;;15.38;98.64;100840.69;5041809;28;20079;-70
2023/07/21 05:30:13;;;;;;;13.90;11.57;;;;;;;15.36;99.05;100836.66;5021822;28;20029;-70
2023/07/21 05:32:47;;;;;;;18.65;14.35;;;;;;;15.37;99.42;100851.38;5003892;28;20033;-71
2023/07/21 05:35:16;;;;;;;19.15;14.15;;;;;;;15.41;99.68;100850.00;5041491;28;20048;-71
2023/07/21 05:37:47;;;;;;;19.75;12.75;;;;;;;15.50;99.48;100848.88;5023110;28;20068;-70
2023/07/21 05:40:12;;;;;;;20.05;13.48;;;;;;;15.60;98.96;100848.56;5006957;28;20496;-70
2023/07/21 05:42:38;;;;;;;14.55;11.20;;;;;;;15.72;98.38;100844.41;5016508;28;20026;-70
2023/07/21 05:45:05;;;;;;;13.20;11.18;;;;;;;15.80;97.79;100847.94;5026659;28;20522;-70
2023/07/21 05:47:31;;;;;;;17.38;11.30;;;;;;;15.88;97.51;100848.63;5019147;28;20042;-70
2023/07/21 05:50:01;;;;;;;17.42;12.18;;;;;;;15.96;97.24;100853.69;5025483;28;20060;-70
2023/07/21 05:52:28;;;;;;;17.48;12.02;;;;;;;16.05;97.05;100849.13;5022464;28;20038;-70
2023/07/21 05:54:54;;;;;;;14.55;12.50;;;;;;;16.12;96.86;100847.38;5023262;28;20033;-70
2023/07/21 05:57:23;;;;;;;16.77;13.13;;;;;;;16.29;96.32;100852.28;5025329;28;20025;-70
2023/07/21 05:59:50;;;;;;;20.55;15.20;;;;;;;16.44;94.61;100841.72;5022670;28;20029;-70
2023/07/21 06:02:15;;;;;;;17.00;12.55;;;;;;;16.61;93.53;100847.44;5019759;28;20080;-70
2023/07/21 06:04:47;;;;;;;19.35;15.20;;;;;;;16.81;91.77;100840.47;5020047;28;20037;-70
2023/07/21 06:07:23;;;;;;;18.92;12.90;;;;;;;16.94;91.03;100844.97;5024353;28;20080;-70
2023/07/21 06:10:02;;;;;;;17.45;14.13;;;;;;;17.03;89.94;100843.00;5028728;28;20040;-70
2023/07/21 06:12:41;;;;;;;19.45;14.40;;;;;;;17.17;87.16;100841.22;5025092;28;20060;-68
2023/07/21 06:15:15;;;;;;;17.02;13.20;;;;;;;17.35;85.09;100838.00;5024830;28;20312;-70
2023/07/21 06:17:53;;;;;;;16.23;13.13;;;;;;;17.50;83.93;100841.28;5026914;28;20090;-70
2023/07/21 06:20:24;;;;;;;18.70;13.40;;;;;;;17.69;84.30;100839.66;5044912;28;20115;-71
2023/07/21 06:22:51;;;;;;;14.88;10.63;;;;;;;17.77;85.06;100844.69;5026799;28;20046;-70
2023/07/21 06:25:18;;;;;;;17.23;13.07;;;;;;;18.07;83.60;100836.44;5026036;28;20068;-70
2023/07/21 06:27:47;;;;;;;15.57;11.27;;;;;;;18.28;81.82;100836.16;5025856;28;20047;-71
2023/07/21 06:30:14;;;;;;;14.52;10.90;;;;;;;18.37;82.20;100842.00;5027928;28;20064;-70
2023/07/21 06:32:44;;;;;;;20.17;11.55;;;;;;;18.46;80.40;100843.41;5028989;28;20439;-71
2023/07/21 06:35:27;;;;;;;17.00;10.77;;;;;;;18.58;80.04;100840.13;5027012;28;20524;-70
2023/07/21 06:38:13;;;;;;;11.07;8.77;;;;;;;18.67;78.41;100834.44;5007147;28;20037;-71
2023/07/21 06:40:49;;;;;;;13.13;10.57;;;;;;;18.89;77.21;100836.78;5028424;28;20090;-71
2023/07/21 06:43:29;;;;;;;14.30;9.35;;;;;;;18.92;77.17;100835.56;5009913;28;20018;-71
2023/07/21 06:46:13;;;;;;;16.08;10.82;;;;;;;18.90;76.25;100830.50;5025732;28;20450;-71
2023/07/21 06:49:04;;;;;;;14.68;9.75;;;;;;;19.18;75.09;100829.34;5011723;28;20068;-71
2023/07/21 06:51:42;;;;;;;16.38;10.25;;;;;;;19.43;74.57;100824.13;5020548;28;20026;-71
2023/07/21 06:54:08;;;;;;;14.00;10.32;;;;;;;19.67;74.51;100821.72;5027437;28;20587;-70
2023/07/21 06:56:53;;;;;;;16.23;10.00;;;;;;;19.91;73.37;100823.53;5025225;28;20523;-70
2023/07/21 06:59:18;;;;;;;12.25;8.85;;;;;;;20.12;70.04;100827.59;5015828;28;20042;-71
2023/07/21 07:01:44;;;;;;;11.48;8.82;;;;;;;20.08;69.39;100829.06;5025085;28;20092;-70
2023/07/21 07:04:10;;;;;;;9.55;7.35;;;;;;;20.31;68.66;100819.69;5022971;28;21465;-70
2023/07/21 07:06:36;;;;;;;8.52;6.30;;;;;;;20.55;69.09;100821.44;5027326;28;20044;-71
2023/07/21 07:09:02;;;;;;;11.50;8.55;;;;;;;20.95;66.89;100814.88;5029472;28;20570;-70
2023/07/21 07:11:27;;;;;;;15.93;8.32;;;;;;;21.36;64.33;100815.84;5029277;28;20484;-71
2023/07/21 07:13:54;;;;;;;12.10;8.10;;;;;;;21.80;62.60;100815.59;5013135;28;20041;-71
2023/07/21 07:16:19;;;;;;;13.52;9.32;;;;;;;22.09;61.53;100813.84;5010073;28;20059;-70
2023/07/21 07:18:45;;;;;;;12.27;8.48;;;;;;;22.17;60.94;100809.00;5021095;28;20770;-70
2023/07/21 07:21:10;;;;;;;8.18;6.43;;;;;;;22.26;57.68;100804.19;5027247;28;20033;-71
2023/07/21 07:23:37;;;;;;;10.52;6.63;;;;;;;22.54;56.74;100795.47;5023633;28;20033;-71
2023/07/21 07:26:04;;;;;;;9.48;6.65;;;;;;;22.72;55.85;100802.44;5027028;28;20569;-71
2023/07/21 07:28:30;;;;;;;9.40;7.00;;;;;;;22.83;54.97;100802.59;5025057;28;20038;-71
2023/07/21 07:30:55;;;;;;;6.40;4.90;;;;;;;22.98;55.66;100799.41;5026089;28;20691;-71
2023/07/21 07:33:21;;;;;;;7.75;6.03;;;;;;;23.15;54.92;100796.81;5023409;28;20111;-71
2023/07/21 07:35:48;;;;;;;7.22;5.38;;;;;;;23.12;57.35;100801.56;5026148;28;20044;-72
2023/07/21 07:38:14;;;;;;;9.85;6.65;;;;;;;22.83;55.06;100802.59;5032136;28;20075;-71
2023/07/21 07:40:39;;;;;;;9.25;6.68;;;;;;;22.40;56.66;100803.94;5026405;28;20041;-72
2023/07/21 07:43:05;;;;;;;7.88;5.13;;;;;;;22.06;57.09;100801.91;5024013;28;20054;-70
2023/07/21 07:45:31;;;;;;;8.02;5.25;;;;;;;21.89;58.59;100804.47;5027621;28;20913;-71
2023/07/21 07:47:56;;;;;;;6.63;4.93;;;;;;;21.83;59.25;100805.38;5025641;28;20192;-71
2023/07/21 07:50:22;;;;;;;5.43;3.95;;;;;;;21.90;57.32;100800.75;5021840;28;20041;-71
2023/07/21 07:52:49;;;;;;;6.35;4.90;;;;;;;21.82;57.77;100816.16;5024596;28;20095;-71
2023/07/21 07:55:15;;;;;;;6.65;4.75;;;;;;;21.93;59.44;100810.88;5028661;28;20037;-70
2023/07/21 07:57:41;;;;;;;6.43;4.75;;;;;;;22.22;57.05;100815.41;5020590;28;20116;-72
2023/07/21 08:00:08;;;;;;;6.32;4.05;;;;;;;22.28;56.84;100817.97;5024030;28;20121;-71
2023/07/21 08:02:37;;;;;;;6.57;4.63;;;;;;;22.44;55.21;100813.00;5021999;28;20507;-71
2023/07/21 08:05:02;;;;;;;7.72;4.63;;;;;;;22.32;56.23;100813.00;5024283;28;20048;-71
2023/07/21 08:07:28;;;;;;;5.75;4.47;;;;;;;22.36;57.36;100811.53;5021934;28;20036;-71
2023/07/21 08:09:53;;;;;;;10.18;6.07;;;;;;;;;;5022804;28;20480;-71
2023/07/21 08:12:18;;;;;;;10.02;5.28;;;;;;;21.83;56.51;100807.19;5024606;28;20133;-71
2023/07/21 08:14:44;;;;;;;6.70;5.35;;;;;;;21.66;56.62;100805.28;5022704;28;21823;-71
2023/07/21 08:17:09;;;;;;;6.50;4.82;;;;;;;21.78;58.27;100811.34;5020776;28;20049;-71
2023/07/21 08:19:35;;;;;;;10.32;5.63;;;;;;;22.09;58.31;100806.72;5023024;28;20044;-71
2023/07/21 08:22:05;;;;;;;7.45;4.45;;;;;;;22.17;56.34;100802.94;5023858;28;20034;-72
2023/07/21 08:24:31;;;;;;;6.70;5.45;;;;;;;22.36;57.15;100806.25;5026553;28;20064;-70
2023/07/21 08:26:59;;;;;;;7.82;5.35;;;;;;;22.17;56.36;100808.22;5022991;28;20087;-72
2023/07/21 08:29:25;;;;;;;6.97;5.53;;;;;;;22.17;56.19;100813.50;5023510;28;20021;-72
2023/07/21 08:31:50;;;;;;;5.28;4.22;;;;;;;22.38;56.12;100811.25;5024756;28;20034;-71
2023/07/21 08:34:16;;;;;;;8.70;5.30;;;;;;;22.65;55.55;100811.53;5030150;28;20176;-72
2023/07/21 08:36:41;;;;;;;11.02;5.60;;;;;;;23.12;55.05;100806.84;5023585;28;20053;-72
2023/07/21 08:39:06;;;;;;;7.50;5.10;;;;;;;23.42;55.68;100800.44;5026411;28;20033;-71
2023/07/21 08:41:34;;;;;;;9.15;5.80;;;;;;;23.60;53.65;100802.03;5006013;28;20048;-71
2023/07/21 08:44:01;;;;;;;9.35;5.18;;;;;;;23.78;53.31;100798.31;5023111;28;20025;-71
2023/07/21 08:46:27;;;;;;;6.60;5.07;;;;;;;23.85;51.79;100804.25;5023448;28;20491;-71
2023/07/21 08:48:54;;;;;;;8.70;4.40;;;;;;;23.79;51.24;100802.59;5022385;28;20037;-71
2023/07/21 08:51:19;;;;;;;10.38;4.63;;;;;;;23.85;50.57;100808.75;5023787;28;20103;-70
2023/07/21 08:53:45;;;;;;;7.47;4.30;;;;;;;23.58;50.88;100806.75;5008546;28;20034;-71
2023/07/21 08:56:10;;;;;;;5.03;3.63;;;;;;;23.42;51.14;100800.44;5021922;28;20064;-71
2023/07/21 08:58:36;;;;;;;8.75;3.75;;;;;;;23.07;50.93;100803.31;5022829;28;20037;-69
2023/07/21 09:01:04;;;;;;;6.00;4.07;;;;;;;22.66;51.74;100802.56;5007047;28;20034;-69
2023/07/21 09:03:30;;;;;;;7.05;3.95;;;;;;;22.39;53.72;100808.41;5023274;28;20933;-69
2023/07/21 09:05:57;;;;;;;6.20;4.47;;;;;;;22.57;52.94;100809.28;5026602;28;20741;-69
2023/07/21 09:08:26;;;;;;;4.10;2.92;;;;;;;23.29;51.75;100801.56;5029289;28;20025;-69
2023/07/21 09:10:57;;;;;;;4.65;3.33;;;;;;;24.01;49.28;100792.00;5019465;28;20040;-69
2023/07/21 09:13:23;;;;;;;7.28;3.83;;;;;;;23.86;50.40;100795.25;5024538;28;20041;-68
2023/07/21 09:15:59;;;;;;;4.38;2.92;;;;;;;24.21;48.58;100793.31;5021715;28;20099;-69
2023/07/21 09:18:42;;;;;;;4.15;3.13;;;;;;;24.32;48.69;100792.41;5020867;28;20057;-70
2023/07/21 09:21:17;;;;;;;6.45;3.88;;;;;;;24.49;48.12;100793.13;5017337;28;20038;-69
2023/07/21 09:23:43;;;;;;;4.82;3.33;;;;;;;24.68;47.82;100795.44;5021453;28;20429;-70
2023/07/21 09:26:08;;;;;;;9.70;4.78;;;;;;;24.67;46.58;100789.34;5021294;28;20042;-69
2023/07/21 09:28:52;;;;;;;9.25;4.43;;;;;;;24.43;47.03;100791.47;5029139;28;20025;-69
2023/07/21 09:31:17;;;;;;;6.32;3.88;;;;;;;24.64;46.72;100799.66;5037244;28;20033;-69
2023/07/21 09:33:44;;;;;;;6.45;4.00;;;;;;;25.02;46.04;100796.03;5022135;28;20419;-69
2023/07/21 09:36:13;;;;;;;5.97;3.38;;;;;;;25.26;45.44;100795.72;5017872;28;20038;-69
2023/07/21 09:38:39;;;;;;;4.50;3.90;;;;;;;25.34;44.88;100795.25;5022753;28;20617;-69
2023/07/21 09:41:11;;;;;;;4.82;3.35;;;;;;;24.75;45.67;100782.81;5021576;28;20049;-69
2023/07/21 09:43:37;;;;;;;6.25;4.60;;;;;;;24.67;46.32;100794.63;5019680;28;20399;-70
2023/07/21 09:46:05;;;;;;;5.35;4.25;;;;;;;24.62;46.86;100788.47;5022752;28;20045;-69
2023/07/21 09:48:31;;;;;;;7.78;4.30;;;;;;;25.11;46.06;100793.72;5029286;28;20076;-69
2023/07/21 09:51:03;;;;;;;7.63;5.15;;;;;;;25.16;44.91;100788.44;5026278;28;20056;-70
2023/07/21 09:53:39;;;;;;;6.57;3.70;;;;;;;24.79;47.79;100793.69;5025089;28;20033;-69
2023/07/21 09:56:06;;;;;;;6.25;4.25;;;;;;;24.37;47.14;100789.00;5022371;28;20042;-69
2023/07/21 09:58:36;;;;;;;8.02;4.03;;;;;;;23.99;48.02;100782.72;5021745;28;20045;-69
2023/07/21 10:01:04;;;;;;;6.15;4.30;;;;;;;24.33;47.52;100783.38;5026334;28;20045;-69
2023/07/21 10:03:31;;;;;;;7.68;3.67;;;;;;;24.40;47.71;100780.56;5027440;28;20151;-68
2023/07/21 10:05:58;;;;;;;5.32;3.65;;;;;;;24.44;47.96;100789.59;5021535;28;20821;-70
2023/07/21 10:08:27;;;;;;;6.25;4.15;;;;;;;24.51;47.54;100782.25;5026411;28;20034;-70
2023/07/21 10:10:56;;;;;;;4.70;3.92;;;;;;;24.65;47.39;100778.19;5018112;28;20574;-69
2023/07/21 10:13:24;;;;;;;6.65;4.68;;;;;;;24.59;47.29;100786.34;5023562;28;20559;-70
2023/07/21 10:15:50;;;;;;;5.13;3.72;;;;;;;24.37;46.40;100775.75;5021342;28;20585;-70
2023/07/21 10:18:17;;;;;;;6.78;3.85;;;;;;;24.54;47.47;100776.47;5026248;28;20021;-70
2023/07/21 10:20:50;;;;;;;5.38;3.17;;;;;;;24.75;46.09;100782.81;5021367;28;20056;-70
2023/07/21 10:23:26;;;;;;;;;;;;;;;25.01;44.88;100783.00;5019688;28;20045;-69
2023/07/21 10:25:52;;;;;;;4.40;3.13;;;;;;;25.08;44.57;100780.16;5031726;28;19921;-69
2023/07/21 10:28:23;;;;;;;4.32;3.28;;;;;;;25.27;44.46;100778.72;5025207;28;20075;-69
2023/07/21 10:30:49;;;;;;;8.05;4.60;;;;;;;25.41;43.99;100771.13;5019367;28;20049;-70
2023/07/21 10:33:22;;;;;;;6.15;3.72;;;;;;;25.25;44.23;100768.38;5022363;28;20026;-69
2023/07/21 10:35:49;;;;;;;8.63;3.67;;;;;;;25.14;43.83;100769.31;5007936;28;20040;-70
2023/07/21 10:38:14;;;;;;;4.93;3.35;;;;;;;25.46;42.49;100765.84;5023920;28;20029;-70
2023/07/21 10:40:44;;;;;;;2.80;2.50;;;;;;;25.42;41.44;100759.47;5004012;28;20080;-70
2023/07/21 10:43:10;;;;;;;2.85;2.10;;;;;;;25.43;41.41;100755.78;5021316;28;20041;-70
2023/07/21 10:45:36;;;;;;;3.65;2.90;;;;;;;25.44;43.08;100750.19;5026405;28;20540;-70
2023/07/21 10:48:12;;;;;;;5.35;3.25;;;;;;;25.38;42.81;100755.72;5022891;28;20048;-70
2023/07/21 10:50:51;;;;;;;3.88;2.80;;;;;;;25.13;44.12;100751.81;5034269;22;20045;-70
2023/07/21 10:53:17;;;;;;;3.03;2.47;;;;;;;24.90;45.68;100758.25;5017576;28;20041;-69
2023/07/21 10:55:42;;;;;;;4.13;2.35;;;;;;;24.71;43.86;100760.47;5019333;28;20041;-70
2023/07/21 10:58:08;;;;;;;3.63;2.97;;;;;;;24.32;43.98;100755.31;5022884;28;20037;-69
2023/07/21 11:00:47;;;;;;;4.57;2.70;;;;;;;23.99;45.07;100750.94;5023796;28;20025;-69
2023/07/21 11:03:13;;;;;;;3.65;2.40;;;;;;;23.86;45.47;100741.53;5037648;28;20061;-69
2023/07/21 11:05:39;;;;;;;8.95;2.65;;;;;;;24.16;46.46;100745.59;5005619;28;20110;-70
2023/07/21 11:08:04;;;;;;;4.60;2.83;;;;;;;24.32;45.51;100746.53;5021732;28;20029;-69
2023/07/21 11:10:33;;;;;;;3.47;2.33;;;;;;;24.75;44.03;100752.81;5040540;28;20673;-69
2023/07/21 11:13:00;;;;;;;7.22;2.72;;;;;;;25.06;43.05;100743.28;5020222;28;20411;-69
2023/07/21 11:15:26;;;;;;;3.15;2.85;;;;;;;24.91;42.79;100736.00;5018582;28;20044;-70
2023/07/21 11:18:03;;;;;;;4.55;3.70;;;;;;;24.98;42.75;100728.63;5002475;28;20517;-69
2023/07/21 11:20:28;;;;;;;4.95;3.55;;;;;;;25.03;43.88;100734.00;5017032;28;20037;-69
2023/07/21 11:22:54;;;;;;;4.50;3.20;;;;;;;24.60;43.61;100732.28;5017026;28;20417;-69
2023/07/21 11:25:20;;;;;;;3.20;2.70;;;;;;;24.98;43.95;100733.16;5006551;28;20630;-69
2023/07/21 11:27:46;;;;;;;4.63;2.45;;;;;;;24.80;44.25;100737.75;5020839;28;20048;-69